Time;durP1;ratioP1;P1;durP2;ratioP2;P2;SDS_P1;SDS_P2;PMS_P1;PMS_P2;Temp;Humidity;BMP_temperature;BMP_pressure;BME280_temperature;BME280_humidity;BME280_pressure;Samples;Min_cycle;Max_cycle;Signal;HPM_P1;HPM_P2
2023/01/18 00:01:20;;;;;;;25.50;11.50;;;;;;;1.96;84.18;96185.66;88924;1272;98788;-78
2023/01/18 00:03:22;;;;;;;20.90;12.10;;;;;;;1.91;84.19;96182.30;88916;1264;99064;-76
2023/01/18 00:05:24;;;;;;;14.10;10.00;;;;;;;1.88;84.28;96180.58;89064;1269;22613;-77
2023/01/18 00:07:25;;;;;;;18.20;10.30;;;;;;;1.83;84.09;96177.70;88975;1256;101140;-77
2023/01/18 00:09:27;;;;;;;13.80;10.00;;;;;;;1.79;84.09;96176.04;88994;1263;99354;-77
2023/01/18 00:11:29;;;;;;;15.80;10.70;;;;;;;1.76;84.33;96178.50;89064;1272;24408;-76
2023/01/18 00:13:31;;;;;;;13.60;9.60;;;;;;;1.72;84.33;96181.50;89131;1269;99323;-77
2023/01/18 00:15:34;;;;;;;15.50;9.90;;;;;;;1.66;84.33;96183.19;88848;1255;99342;-77
2023/01/18 00:17:46;;;;;;;13.80;10.00;;;;;;;1.63;84.31;96183.77;89144;1262;22662;-77
2023/01/18 00:19:47;;;;;;;18.30;8.00;;;;;;;1.58;83.98;96186.11;88880;1272;99160;-77
2023/01/18 00:21:53;;;;;;;22.50;11.00;;;;;;;1.52;84.19;96185.71;88865;1272;22697;-78
2023/01/18 00:23:55;;;;;;;14.70;10.00;;;;;;;1.47;84.18;96187.39;88972;1272;22672;-77
2023/01/18 00:26:07;;;;;;;12.40;9.00;;;;;;;1.42;84.35;96188.55;88879;1270;99139;-75
2023/01/18 00:28:08;;;;;;;;;;;;;;;1.36;84.37;96183.71;89207;1268;24257;-77
2023/01/18 00:30:10;;;;;;;22.60;12.60;;;;;;;1.27;84.39;96181.45;89143;1270;22615;-77
2023/01/18 00:32:13;;;;;;;23.40;11.90;;;;;;;1.21;84.26;96177.98;88988;1260;98942;-77
2023/01/18 00:34:15;;;;;;;19.60;13.20;;;;;;;1.14;84.37;96183.35;88904;1271;24285;-77
2023/01/18 00:36:17;;;;;;;22.60;14.00;;;;;;;0.96;84.28;96162.04;88898;1271;25403;-75
2023/01/18 00:38:19;;;;;;;12.80;9.60;;;;;;;1.01;84.40;96180.48;88696;1272;100072;-77
2023/01/18 00:40:22;;;;;;;20.60;12.90;;;;;;;0.93;84.54;96181.25;89091;1272;24270;-77
2023/01/18 00:44:44;;;;;;;21.30;12.60;;;;;;;0.74;84.17;96183.98;88891;1253;99505;-76
2023/01/18 00:46:48;;;;;;;20.50;12.90;;;;;;;0.68;84.30;96183.97;89035;1270;25449;-77
2023/01/18 00:48:51;;;;;;;19.70;13.10;;;;;;;0.61;84.26;96182.61;89055;1262;22537;-77
2023/01/18 00:50:53;;;;;;;15.10;11.40;;;;;;;0.55;84.35;96179.15;88850;1269;99204;-75
2023/01/18 00:52:57;;;;;;;28.10;12.60;;;;;;;0.49;84.27;96179.28;89077;1269;22541;-77
2023/01/18 00:54:58;;;;;;;19.30;13.20;;;;;;;0.42;84.30;96184.30;89068;1271;23367;-77
2023/01/18 00:57:00;;;;;;;25.90;12.80;;;;;;;0.35;84.39;96186.88;89030;1264;98708;-77
2023/01/18 00:59:02;;;;;;;21.90;13.30;;;;;;;0.29;84.21;96188.92;89108;1269;22589;-76
2023/01/18 01:01:08;;;;;;;25.70;12.90;;;;;;;0.26;84.48;96192.21;89064;1265;99804;-75
2023/01/18 01:03:13;;;;;;;24.40;15.10;;;;;;;0.22;84.59;96191.92;89120;1268;98962;-77
2023/01/18 01:07:38;;;;;;;26.70;14.30;;;;;;;0.14;84.58;96166.76;88865;1269;99128;-76
2023/01/18 01:09:41;;;;;;;22.00;14.00;;;;;;;0.11;84.52;96157.21;89036;1269;98953;-76
2023/01/18 01:12:31;;;;;;;28.70;15.10;;;;;;;0.09;84.77;96147.50;89012;1266;23097;-75
2023/01/18 01:26:07;;;;;;;18.90;13.20;;;;;;;-0.05;85.08;96153.04;88936;1269;100149;-77
2023/01/18 01:28:09;;;;;;;18.00;13.50;;;;;;;-0.07;84.92;96145.73;89034;1269;25524;-78
2023/01/18 01:30:12;;;;;;;20.20;15.30;;;;;;;-0.09;85.07;96139.77;89044;1270;22635;-79
2023/01/18 01:32:14;;;;;;;21.40;14.60;;;;;;;-0.10;85.10;96130.34;88830;1263;99340;-78
2023/01/18 01:34:16;;;;;;;22.00;14.00;;;;;;;-0.11;85.06;96119.70;88991;1270;22638;-81
2023/01/18 01:36:20;;;;;;;22.20;13.80;;;;;;;-0.12;85.25;96106.14;88977;1272;22538;-80
2023/01/18 01:38:23;;;;;;;17.70;12.80;;;;;;;-0.14;85.18;96098.47;89213;1269;101147;-80
2023/01/18 01:40:24;;;;;;;19.10;12.90;;;;;;;-0.14;85.30;96100.20;88966;1272;22563;-80
2023/01/18 01:42:26;;;;;;;16.10;12.40;;;;;;;-0.14;85.22;96097.60;88986;1270;22541;-80
2023/01/18 01:44:33;;;;;;;11.40;10.20;;;;;;;-0.13;85.32;96092.92;88917;1261;98863;-80
2023/01/18 01:46:49;;;;;;;14.80;9.80;;;;;;;-0.12;85.41;96091.31;89076;1269;22611;-79
2023/01/18 01:49:12;;;;;;;10.00;8.90;;;;;;;-0.11;85.34;96097.95;89076;1269;22732;-79
2023/01/18 01:51:18;;;;;;;10.60;8.20;;;;;;;-0.09;85.47;96098.05;89248;1269;99382;-79
2023/01/18 01:53:20;;;;;;;9.20;7.20;;;;;;;-0.09;85.34;96102.35;88883;1271;24323;-78
2023/01/18 01:55:27;;;;;;;11.00;7.00;;;;;;;-0.08;85.33;96108.14;88909;1258;99088;-76
2023/01/18 01:57:41;;;;;;;8.00;6.60;;;;;;;-0.07;85.44;96113.11;89022;1262;100437;-77
2023/01/18 01:59:58;;;;;;;6.90;6.10;;;;;;;-0.06;85.35;96113.06;89012;1270;22549;-78
2023/01/18 02:02:02;;;;;;;8.80;7.50;;;;;;;-0.04;85.49;96107.11;88906;1269;99835;-78
2023/01/18 02:04:04;;;;;;;10.70;7.70;;;;;;;-0.03;85.35;96098.41;88924;1268;22647;-78
2023/01/18 02:06:32;;;;;;;13.30;7.00;;;;;;;-0.02;85.48;96093.02;89122;1271;24390;-79
2023/01/18 02:08:33;;;;;;;8.50;7.70;;;;;;;0.00;85.75;96085.66;88938;1269;99218;-77
2023/01/18 02:10:37;;;;;;;7.40;6.40;;;;;;;-0.00;85.74;96075.84;89152;1269;24260;-79
2023/01/18 02:12:41;;;;;;;8.60;7.80;;;;;;;-0.01;85.73;96074.47;89095;1269;26574;-78
2023/01/18 02:14:43;;;;;;;7.50;6.70;;;;;;;-0.01;85.44;96068.23;88767;1272;99408;-77
2023/01/18 02:17:04;;;;;;;7.80;7.00;;;;;;;-0.01;85.59;96055.66;89051;1269;22546;-77
2023/01/18 02:19:41;;;;;;;10.00;7.70;;;;;;;-0.01;85.74;96043.44;89005;1270;24085;-77
2023/01/18 02:21:56;;;;;;;8.30;7.50;;;;;;;-0.03;85.52;96029.02;88989;1266;22538;-78
2023/01/18 02:27:25;;;;;;;8.70;7.90;;;;;;;-0.06;85.74;96011.90;89260;1269;99291;-77
2023/01/18 02:29:54;;;;;;;9.20;8.00;;;;;;;-0.10;85.84;96009.52;89045;1262;23832;-77
2023/01/18 02:32:25;;;;;;;11.90;9.10;;;;;;;-0.08;85.87;96022.75;88947;1269;98973;-77
2023/01/18 02:34:39;;;;;;;11.50;9.50;;;;;;;-0.11;85.95;96024.48;89139;1263;22594;-77
2023/01/18 02:36:53;;;;;;;9.60;8.20;;;;;;;-0.09;85.69;96016.41;89230;1268;26613;-78
2023/01/18 02:39:04;;;;;;;10.30;9.30;;;;;;;-0.10;85.79;96021.10;88985;1260;99644;-78
2023/01/18 02:41:19;;;;;;;11.90;9.00;;;;;;;-0.09;85.88;96023.67;89127;1266;22523;-77
2023/01/18 02:48:09;;;;;;;12.30;8.40;;;;;;;-0.08;86.07;96021.51;88997;1269;25350;-77
2023/01/18 02:50:21;;;;;;;12.90;8.10;;;;;;;-0.08;85.96;96016.52;88985;1269;99058;-77
2023/01/18 02:52:41;;;;;;;10.20;9.10;;;;;;;-0.06;86.01;95998.45;88981;1268;23354;-76
2023/01/18 02:54:42;;;;;;;8.90;8.00;;;;;;;-0.05;85.88;95994.45;89094;1266;22587;-76
2023/01/18 02:56:51;;;;;;;10.90;8.20;;;;;;;-0.05;85.99;96000.83;88861;1269;99643;-79
2023/01/18 02:59:19;;;;;;;8.60;7.60;;;;;;;-0.05;86.16;96003.93;88967;1269;23037;-77
2023/01/18 03:01:27;;;;;;;6.70;6.10;;;;;;;-0.04;85.94;96011.13;88928;1270;97991;-79
2023/01/18 03:03:30;;;;;;;7.80;7.10;;;;;;;-0.02;86.12;96028.11;89046;1266;98953;-77
2023/01/18 03:05:35;;;;;;;9.80;7.90;;;;;;;-0.00;86.10;96042.53;88902;1271;22656;-77
2023/01/18 03:07:39;;;;;;;6.70;6.20;;;;;;;0.02;85.90;96052.95;88899;1270;99452;-77
2023/01/18 03:09:44;;;;;;;7.20;6.50;;;;;;;0.03;86.18;96060.30;89072;1268;98360;-76
2023/01/18 03:11:57;;;;;;;8.10;6.40;;;;;;;0.04;86.13;96069.21;88986;1272;22598;-78
2023/01/18 03:14:13;;;;;;;7.40;6.00;;;;;;;0.06;86.03;96070.48;89021;1270;98756;-78
2023/01/18 03:16:22;;;;;;;7.10;6.40;;;;;;;0.05;86.24;96071.77;89113;1269;24279;-78
2023/01/18 03:18:30;;;;;;;7.30;6.60;;;;;;;0.08;86.26;96072.27;89198;1269;22758;-79
2023/01/18 03:20:39;;;;;;;7.00;6.00;;;;;;;0.10;86.09;96074.08;88998;1269;99162;-78
2023/01/18 03:25:28;;;;;;;7.30;6.40;;;;;;;0.12;86.17;96072.21;88905;1269;99425;-78
2023/01/18 03:34:47;;;;;;;6.80;6.20;;;;;;;0.16;86.14;96051.10;89081;1268;24223;-77
2023/01/18 03:36:52;;;;;;;7.50;6.90;;;;;;;0.16;85.93;96050.98;89038;1269;25295;-77
2023/01/18 03:39:01;;;;;;;7.60;7.00;;;;;;;0.19;86.16;96052.73;88903;1269;98665;-78
2023/01/18 03:41:06;;;;;;;7.60;6.90;;;;;;;0.20;86.04;96044.23;89036;1270;23011;-78
2023/01/18 03:43:15;;;;;;;8.70;6.60;;;;;;;0.20;86.27;96028.66;89111;1272;22653;-77
2023/01/18 03:45:31;;;;;;;6.80;6.20;;;;;;;0.21;86.19;96010.84;88872;1272;98621;-78
2023/01/18 03:47:34;;;;;;;6.30;5.80;;;;;;;0.21;86.22;96012.20;89469;1268;24344;-76
2023/01/18 03:49:36;;;;;;;6.70;6.20;;;;;;;0.22;86.15;96031.69;88945;1274;98913;-78
2023/01/18 03:51:52;;;;;;;6.40;5.90;;;;;;;0.22;86.19;96040.29;89090;1265;98400;-78
2023/01/18 03:54:05;;;;;;;6.20;5.70;;;;;;;0.23;86.17;96042.83;89075;1270;22990;-78
2023/01/18 03:56:17;;;;;;;6.50;5.80;;;;;;;0.24;86.27;96031.92;88880;1262;98925;-81
2023/01/18 03:58:24;;;;;;;7.50;6.70;;;;;;;0.25;86.16;96012.84;88951;1272;22577;-78
2023/01/18 04:00:25;;;;;;;9.10;6.50;;;;;;;0.25;86.21;96005.23;88958;1270;24373;-78
2023/01/18 04:02:27;;;;;;;7.40;6.80;;;;;;;0.25;86.22;96003.70;88947;1263;98707;-79
2023/01/18 04:04:29;;;;;;;10.30;7.30;;;;;;;0.27;86.28;95998.77;89013;1269;24401;-78
2023/01/18 04:06:32;;;;;;;7.70;6.90;;;;;;;0.27;86.19;95998.58;88990;1270;22542;-78
2023/01/18 04:08:35;;;;;;;7.60;7.00;;;;;;;0.27;86.28;95992.34;88853;1271;99662;-78
2023/01/18 04:10:36;;;;;;;7.60;6.90;;;;;;;0.28;86.24;95991.09;89185;1262;22600;-78
2023/01/18 04:12:38;;;;;;;7.20;6.50;;;;;;;0.28;86.24;95990.05;89005;1262;22670;-80
2023/01/18 04:14:41;;;;;;;8.10;7.30;;;;;;;0.29;86.32;95997.77;88706;1271;99139;-78
2023/01/18 04:16:43;;;;;;;9.70;7.70;;;;;;;0.30;86.43;95991.35;89019;1266;23279;-77
2023/01/18 04:18:44;;;;;;;8.20;7.40;;;;;;;0.32;86.24;95984.66;89037;1269;23098;-78
2023/01/18 04:20:47;;;;;;;9.00;8.20;;;;;;;0.32;86.38;95976.36;88867;1269;99499;-77
2023/01/18 04:22:54;;;;;;;8.10;7.30;;;;;;;0.33;86.18;95978.73;89051;1263;23352;-78
2023/01/18 04:24:57;;;;;;;8.30;7.60;;;;;;;0.33;86.32;95983.23;89030;1270;22690;-78
2023/01/18 04:26:58;;;;;;;7.90;7.20;;;;;;;0.34;86.27;95984.54;88841;1263;98807;-78
2023/01/18 04:29:00;;;;;;;8.20;7.30;;;;;;;0.34;86.39;95977.27;89041;1272;22552;-78
2023/01/18 04:31:02;;;;;;;8.90;8.10;;;;;;;0.34;86.24;95973.50;89047;1267;22917;-78
2023/01/18 04:33:04;;;;;;;9.30;8.40;;;;;;;0.33;86.49;95970.07;88996;1262;98997;-79
2023/01/18 04:35:06;;;;;;;9.70;8.70;;;;;;;0.34;86.38;95966.39;89125;1269;24321;-79
2023/01/18 04:37:08;;;;;;;9.60;8.80;;;;;;;0.35;86.40;95969.48;88800;1272;25483;-78
2023/01/18 04:39:12;;;;;;;9.10;8.20;;;;;;;0.36;86.37;95968.58;89011;1263;98791;-78
2023/01/18 04:41:13;;;;;;;9.90;8.10;;;;;;;0.35;86.24;95971.17;88962;1272;22601;-81
2023/01/18 04:43:16;;;;;;;8.90;8.10;;;;;;;0.36;86.39;95966.84;89036;1270;25501;-78
2023/01/18 04:45:18;;;;;;;10.50;8.00;;;;;;;0.37;86.40;95963.33;88829;1265;98514;-79
2023/01/18 04:47:21;;;;;;;8.90;8.10;;;;;;;0.37;86.38;95972.09;88984;1269;24355;-76
2023/01/18 04:49:23;;;;;;;11.40;8.80;;;;;;;0.37;86.43;95976.27;89089;1269;97686;-78
2023/01/18 04:51:26;;;;;;;8.50;7.70;;;;;;;0.37;86.45;95979.00;88913;1262;97803;-79
2023/01/18 04:53:28;;;;;;;9.00;8.20;;;;;;;0.38;86.56;95978.45;89122;1253;22519;-79
2023/01/18 04:55:30;;;;;;;9.80;8.90;;;;;;;0.38;86.35;95974.66;88927;1270;98177;-78
2023/01/18 04:57:32;;;;;;;12.50;9.00;;;;;;;0.38;86.38;95979.48;88991;1270;98914;-78
2023/01/18 04:59:38;;;;;;;11.10;9.10;;;;;;;0.39;86.28;95987.20;89051;1272;22530;-78
2023/01/18 05:01:40;;;;;;;12.30;11.00;;;;;;;0.39;86.47;95987.71;88994;1270;98206;-78
2023/01/18 05:03:42;;;;;;;12.00;10.80;;;;;;;0.40;86.45;95986.26;88878;1266;98947;-78
2023/01/18 05:05:44;;;;;;;13.30;11.90;;;;;;;0.41;86.58;95981.42;89190;1270;24238;-76
2023/01/18 05:07:46;;;;;;;12.00;10.80;;;;;;;0.42;86.53;95979.06;88693;1272;99357;-78
2023/01/18 05:09:48;;;;;;;11.30;10.20;;;;;;;0.43;86.44;95977.80;89130;1263;22774;-77
2023/01/18 05:11:50;;;;;;;12.60;9.80;;;;;;;0.44;86.43;95977.96;89046;1269;24806;-79
2023/01/18 05:13:54;;;;;;;12.90;11.20;;;;;;;0.42;86.31;95983.91;89154;1269;98918;-77
2023/01/18 05:15:58;;;;;;;13.70;11.60;;;;;;;0.42;86.41;95987.04;89092;1270;24294;-79
2023/01/18 05:18:01;;;;;;;12.30;10.90;;;;;;;0.43;86.64;95987.64;89155;1269;25541;-78
2023/01/18 05:20:10;;;;;;;11.80;10.60;;;;;;;0.44;86.69;95998.80;88810;1259;100407;-78
2023/01/18 05:22:12;;;;;;;12.30;9.90;;;;;;;0.45;86.45;96012.94;89031;1269;22573;-77
2023/01/18 05:24:14;;;;;;;13.10;10.10;;;;;;;0.46;86.67;96013.39;88987;1263;24696;-76
2023/01/18 05:26:21;;;;;;;16.20;10.00;;;;;;;0.48;86.89;96009.83;88857;1262;99375;-79
2023/01/18 05:28:25;;;;;;;11.40;10.30;;;;;;;0.52;86.62;96008.08;88874;1272;23449;-78
2023/01/18 05:30:27;;;;;;;12.10;10.10;;;;;;;0.53;86.70;96014.41;89073;1269;22584;-78
2023/01/18 05:32:28;;;;;;;12.10;10.70;;;;;;;0.56;86.43;96009.80;88748;1272;100602;-79
2023/01/18 05:34:30;;;;;;;12.70;11.50;;;;;;;0.57;86.66;95998.99;89142;1269;22547;-78
2023/01/18 05:36:31;;;;;;;14.10;10.80;;;;;;;0.59;86.72;95997.66;88948;1263;22585;-78
2023/01/18 05:38:33;;;;;;;14.40;11.00;;;;;;;0.61;86.63;96000.48;88931;1269;99095;-78
2023/01/18 05:40:35;;;;;;;14.60;11.10;;;;;;;0.62;86.65;96000.96;88953;1272;22601;-78
2023/01/18 05:42:37;;;;;;;15.00;12.30;;;;;;;0.63;86.47;96009.90;89039;1270;26850;-78
2023/01/18 05:44:39;;;;;;;13.40;11.70;;;;;;;0.64;86.43;96012.79;88898;1270;99575;-78
2023/01/18 05:46:42;;;;;;;14.40;12.10;;;;;;;0.63;86.65;96016.11;89165;1272;25505;-78
2023/01/18 05:48:43;;;;;;;12.10;10.90;;;;;;;0.63;86.45;96012.98;89224;1269;25954;-79
2023/01/18 05:50:47;;;;;;;15.40;10.80;;;;;;;0.63;86.43;96009.17;88615;1273;204486;-77
2023/01/18 05:52:53;;;;;;;21.20;13.50;;;;;;;0.64;86.66;96010.20;89310;1269;22654;-78
2023/01/18 05:54:55;;;;;;;19.70;13.20;;;;;;;0.65;86.52;96006.67;89248;1269;22642;-78
2023/01/18 05:56:57;;;;;;;28.60;12.60;;;;;;;0.65;86.67;95995.23;88950;1270;101019;-78
2023/01/18 05:58:58;;;;;;;17.50;13.60;;;;;;;0.67;86.55;95990.67;89165;1269;22541;-78
2023/01/18 06:01:00;;;;;;;17.50;14.40;;;;;;;0.66;86.73;95994.13;89030;1269;24379;-75
2023/01/18 06:03:02;;;;;;;42.70;24.20;;;;;;;0.68;86.70;95991.98;88830;1270;99689;-78
2023/01/18 06:05:04;;;;;;;35.20;21.40;;;;;;;0.67;86.61;95996.34;89161;1270;22648;-78
2023/01/18 06:07:08;;;;;;;34.80;20.90;;;;;;;0.66;86.67;95993.29;89001;1275;24314;-78
2023/01/18 06:09:11;;;;;;;49.40;27.60;;;;;;;0.65;86.80;95986.11;88820;1265;99297;-78
2023/01/18 06:11:12;;;;;;;44.30;28.00;;;;;;;0.64;86.39;95985.64;88877;1271;22577;-78
2023/01/18 06:13:14;;;;;;;40.80;26.40;;;;;;;0.65;86.72;95989.05;89065;1269;23460;-76
2023/01/18 06:15:16;;;;;;;34.90;22.50;;;;;;;0.65;86.62;95989.70;88982;1263;99452;-77
2023/01/18 06:17:18;;;;;;;22.10;14.80;;;;;;;0.66;86.84;95989.66;88990;1270;22970;-78
2023/01/18 06:19:20;;;;;;;17.40;13.60;;;;;;;0.64;86.67;95988.03;88961;1270;98253;-76
2023/01/18 06:21:21;;;;;;;17.60;13.80;;;;;;;0.65;86.59;95983.66;88826;1269;99983;-78
2023/01/18 06:23:23;;;;;;;16.80;13.60;;;;;;;0.65;86.74;95983.14;89048;1264;22680;-77
2023/01/18 06:25:25;;;;;;;21.70;12.30;;;;;;;0.64;86.89;95982.86;89126;1270;100718;-78
2023/01/18 06:27:27;;;;;;;17.90;13.20;;;;;;;0.64;86.89;95988.20;89020;1270;99295;-78
2023/01/18 06:29:29;;;;;;;20.30;13.30;;;;;;;0.64;86.59;95990.27;89462;1266;24242;-78
2023/01/18 06:31:31;;;;;;;24.30;15.40;;;;;;;0.65;86.87;95987.29;89399;1269;98602;-79
2023/01/18 06:33:33;;;;;;;24.90;17.90;;;;;;;0.65;86.85;95981.58;89469;1264;98768;-80
2023/01/18 06:35:37;;;;;;;25.30;17.00;;;;;;;0.65;86.82;95987.48;89596;1269;22604;-78
2023/01/18 06:37:39;;;;;;;24.90;18.20;;;;;;;0.63;86.66;95994.52;89471;1272;98450;-80
2023/01/18 06:39:41;;;;;;;22.20;16.10;;;;;;;0.62;86.73;96003.39;89569;1269;98595;-77
2023/01/18 06:41:42;;;;;;;21.10;16.30;;;;;;;0.61;86.65;96010.70;89532;1269;25438;-79
2023/01/18 06:43:44;;;;;;;28.90;18.40;;;;;;;0.60;86.60;96011.06;89245;1269;100397;-78
2023/01/18 06:45:54;;;;;;;27.60;19.30;;;;;;;0.61;86.59;96005.52;89387;1270;25429;-79
2023/01/18 06:47:56;;;;;;;27.10;17.90;;;;;;;0.62;86.90;96009.77;89297;1272;22764;-78
2023/01/18 06:49:58;;;;;;;25.60;18.00;;;;;;;0.64;86.86;96008.08;89203;1269;99399;-79
2023/01/18 06:51:59;;;;;;;29.50;18.50;;;;;;;0.66;86.92;96013.36;89542;1269;24165;-79
2023/01/18 06:54:01;;;;;;;25.10;18.80;;;;;;;0.64;86.67;96018.09;89204;1272;22581;-80
2023/01/18 06:56:03;;;;;;;30.40;18.50;;;;;;;0.65;86.85;96022.02;89097;1263;98106;-79
2023/01/18 06:58:05;;;;;;;35.90;19.00;;;;;;;0.66;86.83;96009.90;89375;1269;22588;-80
2023/01/18 07:00:09;;;;;;;28.20;17.70;;;;;;;0.68;86.93;96003.91;89340;1272;22574;-78
2023/01/18 07:02:15;;;;;;;24.50;16.70;;;;;;;0.70;86.88;96013.98;89179;1269;98273;-79
2023/01/18 07:04:17;;;;;;;21.10;16.90;;;;;;;0.71;86.89;96023.61;89528;1269;23755;-79
2023/01/18 07:06:19;;;;;;;23.30;14.40;;;;;;;0.73;87.12;96027.31;89330;1266;22574;-79
2023/01/18 07:08:22;;;;;;;21.00;14.20;;;;;;;0.74;86.81;96032.41;89484;1262;98697;-79
2023/01/18 07:10:24;;;;;;;29.00;14.90;;;;;;;0.76;86.96;96035.95;89308;1272;26621;-78
2023/01/18 07:12:26;;;;;;;21.40;14.60;;;;;;;0.76;86.93;96050.63;89400;1269;22526;-77
2023/01/18 07:14:27;;;;;;;26.50;16.30;;;;;;;0.75;86.87;96054.48;89238;1266;99391;-79
2023/01/18 07:16:31;;;;;;;49.40;19.40;;;;;;;0.77;87.10;96052.65;89396;1269;22564;-79
2023/01/18 07:18:34;;;;;;;25.40;17.30;;;;;;;0.80;86.81;96056.29;89869;1269;22574;-79
2023/01/18 07:20:35;;;;;;;33.30;17.20;;;;;;;0.81;87.09;96057.27;89086;1270;99180;-79
2023/01/18 07:22:37;;;;;;;32.00;18.80;;;;;;;0.83;87.12;96051.95;89268;1262;24224;-80
2023/01/18 07:24:39;;;;;;;35.10;19.60;;;;;;;0.85;86.80;96056.51;89209;1269;24315;-78
2023/01/18 07:26:41;;;;;;;31.10;18.40;;;;;;;0.87;87.01;96058.33;89418;1270;98210;-79
2023/01/18 07:28:45;;;;;;;32.30;19.70;;;;;;;0.86;87.03;96051.80;89639;1272;24216;-80
2023/01/18 07:30:47;;;;;;;33.20;18.20;;;;;;;0.87;86.81;96059.89;89678;1270;24626;-79
2023/01/18 07:32:52;;;;;;;32.70;18.10;;;;;;;0.89;87.00;96056.50;89460;1272;99681;-78
2023/01/18 07:34:54;;;;;;;28.30;17.70;;;;;;;0.90;87.02;96056.24;89654;1273;25265;-80
2023/01/18 07:36:55;;;;;;;23.30;17.60;;;;;;;0.91;87.05;96050.48;89680;1270;24355;-78
2023/01/18 07:38:59;;;;;;;28.90;18.20;;;;;;;0.92;86.91;96047.30;89507;1270;98253;-79
2023/01/18 07:41:07;;;;;;;28.80;18.30;;;;;;;0.93;86.79;96047.78;89380;1275;24234;-80
2023/01/18 07:43:09;;;;;;;35.10;19.10;;;;;;;0.92;87.23;96046.45;89482;1263;24459;-78
2023/01/18 07:45:12;;;;;;;34.00;17.90;;;;;;;0.94;87.15;96047.73;89523;1270;99620;-79
2023/01/18 07:47:14;;;;;;;30.80;18.60;;;;;;;0.94;87.22;96042.71;89572;1263;22573;-77
2023/01/18 07:49:16;;;;;;;33.40;17.50;;;;;;;0.96;86.91;96044.18;89684;1266;24385;-79
2023/01/18 07:51:21;;;;;;;27.50;17.60;;;;;;;0.96;87.12;96049.86;89538;1269;99767;-79
2023/01/18 07:53:24;;;;;;;32.20;17.20;;;;;;;0.98;87.30;96049.59;89400;1274;22888;-80
2023/01/18 07:55:25;;;;;;;21.70;16.20;;;;;;;0.98;86.97;96051.12;89486;1270;98701;-79
2023/01/18 07:57:27;;;;;;;31.70;18.00;;;;;;;0.98;87.13;96046.30;89558;1263;99314;-77
2023/01/18 07:59:31;;;;;;;27.10;17.40;;;;;;;0.98;87.03;96052.33;89677;1269;22556;-78
2023/01/18 08:01:33;;;;;;;24.90;17.30;;;;;;;0.98;87.24;96049.58;89618;1269;98456;-79
2023/01/18 08:03:36;;;;;;;34.30;17.20;;;;;;;0.97;87.08;96052.23;89439;1255;98432;-79
2023/01/18 08:05:38;;;;;;;33.60;17.70;;;;;;;0.95;87.08;96057.86;89627;1269;25034;-78
2023/01/18 08:07:40;;;;;;;33.20;18.70;;;;;;;0.94;86.95;96060.36;89330;1272;98637;-79
2023/01/18 08:09:42;;;;;;;37.00;19.80;;;;;;;0.93;87.13;96056.42;89778;1270;98003;-79
2023/01/18 08:11:44;;;;;;;33.40;18.50;;;;;;;0.94;86.92;96057.90;89687;1270;22654;-78
2023/01/18 08:13:48;;;;;;;26.50;18.30;;;;;;;0.95;87.18;96053.73;89328;1270;98780;-77
2023/01/18 08:15:50;;;;;;;43.50;21.30;;;;;;;0.96;87.11;96045.86;89798;1269;22656;-79
2023/01/18 08:17:54;;;;;;;36.20;19.60;;;;;;;0.96;87.04;96035.99;89580;1270;22577;-76
2023/01/18 08:19:56;;;;;;;36.50;19.60;;;;;;;0.99;87.20;96036.34;89413;1270;100017;-78
2023/01/18 08:21:59;;;;;;;31.60;19.30;;;;;;;1.00;87.04;96033.38;89625;1270;25257;-76
2023/01/18 08:24:01;;;;;;;32.90;20.40;;;;;;;1.00;87.15;96030.76;89441;1265;25968;-78
2023/01/18 08:26:03;;;;;;;42.20;20.40;;;;;;;1.02;87.28;96028.77;89442;1266;100041;-79
2023/01/18 08:28:05;;;;;;;43.10;19.30;;;;;;;1.03;87.32;96029.92;89576;1269;22687;-77
2023/01/18 08:30:07;;;;;;;43.50;23.90;;;;;;;1.04;86.97;96043.50;89668;1273;22630;-77
2023/01/18 08:32:09;;;;;;;44.00;22.80;;;;;;;1.05;87.09;96047.45;89482;1270;98343;-77
2023/01/18 08:34:11;;;;;;;39.80;23.50;;;;;;;1.04;87.16;96051.65;89275;1272;22661;-78
2023/01/18 08:36:16;;;;;;;48.00;22.00;;;;;;;1.03;87.11;96058.09;89289;1270;22535;-79
2023/01/18 08:38:18;;;;;;;53.60;23.20;;;;;;;1.03;87.32;96068.67;88785;1272;98323;-79
2023/01/18 08:40:22;;;;;;;41.30;22.80;;;;;;;1.03;87.03;96075.58;89161;1270;24200;-80
2023/01/18 08:42:25;;;;;;;58.50;21.20;;;;;;;1.04;87.30;96080.35;89459;1265;22666;-81
2023/01/18 08:44:27;;;;;;;42.10;22.20;;;;;;;1.05;87.32;96076.66;88952;1270;98368;-79
2023/01/18 08:46:29;;;;;;;43.80;21.90;;;;;;;1.05;87.20;96071.29;89109;1269;22561;-78
2023/01/18 08:48:30;;;;;;;42.00;21.20;;;;;;;1.03;87.28;96069.33;89046;1264;22531;-79
2023/01/18 08:50:33;;;;;;;33.40;19.50;;;;;;;1.02;87.15;96082.02;88780;1272;99402;-78
2023/01/18 08:52:36;;;;;;;41.40;20.60;;;;;;;1.00;87.19;96088.86;88940;1273;22670;-80
2023/01/18 08:54:37;;;;;;;36.80;18.70;;;;;;;0.98;87.21;96087.23;89135;1269;22585;-77
2023/01/18 08:56:39;;;;;;;33.70;18.80;;;;;;;0.99;87.04;96087.73;88913;1269;99614;-79
2023/01/18 08:58:41;;;;;;;32.50;19.40;;;;;;;0.99;87.00;96090.67;89128;1269;25283;-79
2023/01/18 09:00:44;;;;;;;32.70;19.70;;;;;;;0.98;87.10;96086.39;89414;1272;22713;-78
2023/01/18 09:02:47;;;;;;;33.70;17.90;;;;;;;0.97;87.32;96087.99;88926;1269;100521;-78
2023/01/18 09:04:49;;;;;;;31.10;17.10;;;;;;;0.96;87.26;96092.02;89251;1266;22525;-78
2023/01/18 09:06:51;;;;;;;35.70;17.90;;;;;;;0.96;87.10;96085.31;89121;1266;22535;-78
2023/01/18 09:08:53;;;;;;;30.70;17.20;;;;;;;0.95;87.15;96085.20;88954;1272;99259;-77
2023/01/18 09:10:54;;;;;;;31.70;16.80;;;;;;;0.93;87.35;96087.52;88932;1272;24225;-79
2023/01/18 09:12:56;;;;;;;31.60;16.40;;;;;;;0.92;86.96;96087.10;89064;1272;24245;-79
2023/01/18 09:14:58;;;;;;;28.30;15.20;;;;;;;0.90;87.27;96087.34;89517;1260;98298;-78
2023/01/18 09:16:59;;;;;;;28.10;16.00;;;;;;;0.89;87.02;96088.95;89633;1270;24321;-77
2023/01/18 09:19:05;;;;;;;21.50;15.70;;;;;;;0.88;87.19;96093.52;89600;1270;22542;-79
2023/01/18 09:21:12;;;;;;;32.20;16.50;;;;;;;0.88;87.40;96091.83;89423;1266;98394;-83
2023/01/18 09:23:13;;;;;;;21.90;15.50;;;;;;;0.87;87.21;96091.69;89681;1270;22546;-78
2023/01/18 09:25:17;;;;;;;25.80;15.90;;;;;;;0.87;87.18;96090.50;89464;1270;22595;-79
2023/01/18 09:27:19;;;;;;;29.70;17.10;;;;;;;0.85;87.15;96082.42;89661;1267;99207;-79
2023/01/18 09:29:21;;;;;;;29.20;15.70;;;;;;;0.84;87.16;96076.42;89348;1264;22557;-78
2023/01/18 09:31:26;;;;;;;27.30;15.80;;;;;;;0.83;87.30;96074.41;89377;1271;100074;-78
2023/01/18 09:33:29;;;;;;;30.80;15.00;;;;;;;0.82;87.04;96076.70;89357;1270;99268;-78
2023/01/18 09:35:31;;;;;;;25.10;15.30;;;;;;;0.81;87.09;96085.27;89570;1260;23370;-78
2023/01/18 09:37:33;;;;;;;36.80;16.20;;;;;;;0.81;87.33;96096.13;89515;1266;99535;-79
2023/01/18 09:39:35;;;;;;;24.20;14.10;;;;;;;0.81;86.89;96107.88;89451;1263;98000;-78
2023/01/18 09:41:41;;;;;;;25.80;15.00;;;;;;;0.82;87.05;96110.45;89349;1270;22617;-75
2023/01/18 09:43:49;;;;;;;23.90;14.60;;;;;;;0.83;87.27;96114.88;89139;1272;98876;-78
2023/01/18 09:45:51;;;;;;;27.20;15.10;;;;;;;0.84;87.30;96113.27;89405;1257;22591;-77
2023/01/18 09:47:59;;;;;;;25.40;14.90;;;;;;;0.86;87.12;96111.95;89386;1266;22973;-78
2023/01/18 09:50:19;;;;;;;23.40;14.30;;;;;;;0.88;87.07;96115.83;89276;1269;98190;-77
2023/01/18 09:52:21;;;;;;;32.20;15.40;;;;;;;0.89;87.35;96116.28;89586;1270;23085;-79
2023/01/18 09:54:42;;;;;;;27.80;14.70;;;;;;;0.90;87.49;96120.36;89479;1269;22592;-77
2023/01/18 09:57:06;;;;;;;22.30;14.80;;;;;;;0.94;87.17;96129.35;89484;1257;99395;-78
2023/01/18 09:59:14;;;;;;;22.10;13.10;;;;;;;0.91;87.41;96132.06;89638;1270;22655;-79
2023/01/18 10:01:21;;;;;;;26.40;14.00;;;;;;;0.96;87.36;96146.67;89554;1269;22465;-77
2023/01/18 10:03:38;;;;;;;21.60;14.60;;;;;;;0.96;87.43;96153.41;89485;1266;98008;-78
2023/01/18 10:06:16;;;;;;;20.50;14.00;;;;;;;0.98;87.44;96154.35;89592;1269;24235;-77
2023/01/18 10:08:24;;;;;;;24.20;14.00;;;;;;;1.00;87.45;96159.59;89340;1272;98627;-78
2023/01/18 10:10:28;;;;;;;25.70;14.00;;;;;;;1.00;87.52;96158.89;89539;1270;22725;-78
2023/01/18 10:12:39;;;;;;;27.40;15.30;;;;;;;1.03;87.38;96158.05;89555;1270;22537;-79
2023/01/18 10:14:44;;;;;;;;;;;;;;;1.04;87.48;96157.63;89422;1269;99426;-79
2023/01/18 10:16:56;;;;;;;21.80;12.50;;;;;;;1.05;87.55;96153.96;89662;1270;25498;-79
2023/01/18 10:19:00;;;;;;;24.70;14.50;;;;;;;1.06;87.59;96152.34;89435;1267;24270;-76